Time;durP1;ratioP1;P1;durP2;ratioP2;P2;SDS_P1;SDS_P2;PMS_P1;PMS_P2;Temp;Humidity;BMP_temperature;BMP_pressure;BME280_temperature;BME280_humidity;BME280_pressure;Samples;Min_cycle;Max_cycle;Signal;HPM_P1;HPM_P2
2024/02/09 00:01:52;;;;;;;4.60;4.10;;;11.40;1.00;;;;;;4995173;28;20453;-79
2024/02/09 00:04:21;;;;;;;4.37;3.97;;;11.40;1.00;;;;;;4997391;28;20469;-78
2024/02/09 00:06:52;;;;;;;5.17;4.77;;;11.40;1.00;;;;;;4997513;28;20474;-78
2024/02/09 00:09:20;;;;;;;8.07;5.00;;;11.40;1.00;;;;;;4999195;28;20442;-79
2024/02/09 00:11:49;;;;;;;4.80;4.50;;;11.40;99.90;;;;;;4999456;28;20454;-80
2024/02/09 00:14:17;;;;;;;5.57;5.03;;;11.40;1.00;;;;;;4997705;28;20462;-79
2024/02/09 00:16:45;;;;;;;5.80;4.70;;;11.40;99.90;;;;;;4999046;28;20470;-80
2024/02/09 00:19:13;;;;;;;5.40;4.33;;;11.40;1.00;;;;;;4989753;28;20458;-79
2024/02/09 00:21:42;;;;;;;5.20;4.80;;;11.40;99.90;;;;;;4997359;28;20470;-79
2024/02/09 00:24:12;;;;;;;5.60;4.20;;;11.40;99.90;;;;;;4984055;28;20481;-79
2024/02/09 00:26:41;;;;;;;4.50;3.83;;;11.50;99.90;;;;;;4995078;28;20480;-77
2024/02/09 00:29:10;;;;;;;8.70;5.00;;;11.50;99.90;;;;;;4999695;28;20454;-79
2024/02/09 00:31:38;;;;;;;5.30;4.13;;;11.40;99.90;;;;;;4997735;28;20451;-81
2024/02/09 00:34:06;;;;;;;4.77;4.37;;;11.40;99.90;;;;;;4999239;28;20468;-79
2024/02/09 00:36:35;;;;;;;5.57;5.07;;;11.40;99.90;;;;;;4999218;28;20572;-80
2024/02/09 00:39:05;;;;;;;5.70;3.70;;;11.50;99.90;;;;;;4998035;28;20489;-78
2024/02/09 00:41:34;;;;;;;5.33;4.33;;;11.50;99.90;;;;;;4999174;28;21067;-77
2024/02/09 00:44:03;;;;;;;5.07;3.90;;;11.50;99.90;;;;;;4990325;28;20490;-81
2024/02/09 00:46:32;;;;;;;5.17;4.43;;;11.50;99.90;;;;;;4996227;28;20568;-82
2024/02/09 00:49:02;;;;;;;5.83;4.80;;;11.50;99.90;;;;;;4997798;28;20533;-80
2024/02/09 00:51:31;;;;;;;4.17;3.80;;;11.50;99.90;;;;;;5000936;28;20458;-82
2024/02/09 00:54:00;;;;;;;5.23;4.20;;;11.50;99.90;;;;;;5000249;28;20449;-79
2024/02/09 00:56:28;;;;;;;8.00;4.20;;;11.50;99.90;;;;;;5000909;28;20473;-79
2024/02/09 00:58:58;;;;;;;6.90;4.10;;;11.60;99.90;;;;;;4999927;28;20439;-78
2024/02/09 01:01:26;;;;;;;10.07;4.50;;;11.50;99.90;;;;;;4999035;28;20451;-80
2024/02/09 01:03:54;;;;;;;5.70;5.33;;;11.50;99.90;;;;;;5000490;28;20469;-79
2024/02/09 01:06:23;;;;;;;5.90;4.83;;;11.50;99.90;;;;;;5000261;28;20569;-78
2024/02/09 01:08:51;;;;;;;5.60;4.23;;;11.60;99.90;;;;;;5000814;28;20526;-80
2024/02/09 01:11:20;;;;;;;4.87;4.47;;;11.50;99.90;;;;;;5001400;28;21494;-79
2024/02/09 02:44:57;;;;;;;5.60;5.10;;;11.10;99.90;;;;;;4996264;28;20478;-81
2024/02/09 02:47:26;;;;;;;4.80;4.50;;;11.10;99.90;;;;;;4997390;28;20477;-80
2024/02/09 03:06:39;;;;;;;5.77;5.37;;;11.10;68.60;;;;;;4997704;28;20481;-82
2024/02/09 03:09:27;;;;;;;5.13;4.70;;;11.00;1.00;;;;;;4999881;28;20539;-81
2024/02/09 03:11:57;;;;;;;6.10;5.60;;;11.00;99.90;;;;;;5003165;28;20494;-79
2024/02/09 03:14:27;;;;;;;5.80;5.50;;;11.00;99.90;;;;;;5000279;28;20450;-79
2024/02/09 03:16:56;;;;;;;5.10;4.87;;;11.00;1.00;;;;;;4998708;28;20473;-78
2024/02/09 03:19:24;;;;;;;5.60;5.30;;;11.00;1.00;;;;;;4997703;28;20465;-79
2024/02/09 03:21:53;;;;;;;5.27;4.97;;;11.00;1.00;;;;;;4997826;28;20458;-79
2024/02/09 03:24:22;;;;;;;6.43;5.83;;;11.00;1.00;;;;;;4991810;28;22078;-79
2024/02/09 03:26:50;;;;;;;5.60;5.27;;;10.90;1.00;;;;;;4993973;28;20470;-78
2024/02/09 03:29:20;;;;;;;5.87;5.67;;;10.90;1.00;;;;;;4994434;28;21840;-79
2024/02/09 03:31:48;;;;;;;5.63;5.30;;;10.90;69.70;;;;;;4998484;28;20441;-80
2024/02/09 03:34:18;;;;;;;6.30;5.80;;;11.00;85.80;;;;;;5000381;28;20446;-79
2024/02/09 03:36:47;;;;;;;5.83;5.60;;;10.90;23.00;;;;;;4999149;28;20532;-79
2024/02/09 03:39:15;;;;;;;6.20;5.77;;;10.80;99.90;;;;;;5001531;28;20546;-79
2024/02/09 03:41:43;;;;;;;6.77;6.27;;;10.80;99.90;;;;;;5000026;28;20457;-79
2024/02/09 03:44:11;;;;;;;5.90;5.60;;;10.80;99.90;;;;;;4995040;28;21013;-79
2024/02/09 03:46:40;;;;;;;6.30;6.00;;;10.90;99.90;;;;;;4998155;28;20478;-79
2024/02/09 03:49:11;;;;;;;6.17;5.73;;;10.90;99.90;;;;;;4999496;28;20475;-81
2024/02/09 03:51:39;;;;;;;6.63;6.27;;;10.80;99.90;;;;;;5000343;28;20465;-79
2024/02/09 03:54:07;;;;;;;5.70;5.50;;;10.80;99.90;;;;;;5014812;28;20461;-78
2024/02/09 03:56:36;;;;;;;6.10;5.80;;;10.90;99.90;;;;;;5001840;28;20475;-80
2024/02/09 03:59:05;;;;;;;5.80;5.60;;;10.90;99.90;;;;;;4998498;28;20494;-79
2024/02/09 04:01:33;;;;;;;5.47;5.17;;;10.90;99.90;;;;;;4996242;28;20456;-80
2024/02/09 04:04:03;;;;;;;6.10;5.70;;;10.90;99.90;;;;;;5001216;28;20569;-80
2024/02/09 04:06:32;;;;;;;6.40;5.90;;;10.90;99.90;;;;;;4999234;28;20582;-79
2024/02/09 04:09:01;;;;;;;6.97;5.80;;;10.80;99.90;;;;;;4998746;28;20454;-78
2024/02/09 04:11:49;;;;;;;5.43;5.33;;;10.80;99.90;;;;;;5000799;28;20442;-80
2024/02/09 04:14:17;;;;;;;6.07;5.67;;;10.80;99.90;;;;;;4996568;28;20449;-83
2024/02/09 04:16:49;;;;;;;6.23;6.00;;;10.80;99.90;;;;;;4999317;28;20559;-81
2024/02/09 04:19:20;;;;;;;5.80;5.50;;;10.90;99.90;;;;;;4998036;28;20453;-78
2024/02/09 04:21:48;;;;;;;5.40;5.20;;;10.90;99.90;;;;;;4998510;28;20453;-79
2024/02/09 04:24:18;;;;;;;6.30;6.00;;;10.90;99.90;;;;;;4999836;28;20485;-79
2024/02/09 04:26:46;;;;;;;5.80;5.60;;;10.80;99.90;;;;;;4999712;28;21002;-80
2024/02/09 04:29:15;;;;;;;5.90;5.50;;;10.80;99.90;;;;;;4998787;28;20485;-79
2024/02/09 04:31:43;;;;;;;5.90;5.70;;;10.80;99.90;;;;;;4998696;28;20467;-78
2024/02/09 04:34:12;;;;;;;6.00;5.70;;;10.80;99.90;;;;;;4996832;28;21153;-78
2024/02/09 04:36:43;;;;;;;5.80;5.60;;;10.80;99.90;;;;;;4999893;28;20478;-79
2024/02/09 04:39:11;;;;;;;6.70;6.37;;;10.80;99.90;;;;;;4999381;28;20546;-78
2024/02/09 04:41:45;;;;;;;5.77;5.67;;;10.80;99.90;;;;;;5002623;28;20447;-81
2024/02/09 04:44:14;;;;;;;6.50;6.20;;;10.80;99.90;;;;;;4998484;28;20464;-78
2024/02/09 04:46:43;;;;;;;6.40;6.10;;;10.80;41.10;;;;;;4998491;28;20481;-79
2024/02/09 04:49:12;;;;;;;5.90;5.60;;;10.80;99.90;;;;;;4998366;28;21056;-82
2024/02/09 04:51:42;;;;;;;6.17;5.87;;;10.80;70.80;;;;;;4981725;28;20806;-80
2024/02/09 04:54:15;;;;;;;5.67;5.47;;;10.80;1.00;;;;;;4999463;28;20464;-80
2024/02/09 04:56:43;;;;;;;5.40;5.30;;;10.80;1.00;;;;;;4999113;28;20467;-81
2024/02/09 04:59:12;;;;;;;6.10;5.80;;;10.80;1.00;;;;;;4997114;28;20764;-79
2024/02/09 05:01:41;;;;;;;6.03;5.63;;;10.80;1.00;;;;;;4991883;28;20535;-79
2024/02/09 05:04:11;;;;;;;5.43;5.13;;;10.80;1.00;;;;;;4998934;28;20446;-80
2024/02/09 05:06:41;;;;;;;5.40;5.20;;;10.80;1.00;;;;;;5000051;28;20557;-80
2024/02/09 05:09:10;;;;;;;4.77;4.67;;;10.80;1.00;;;;;;4999665;28;20446;-78
2024/02/09 05:11:39;;;;;;;5.33;5.13;;;10.90;1.00;;;;;;4998124;28;20464;-78
2024/02/09 05:14:08;;;;;;;5.07;4.87;;;10.90;1.00;;;;;;4993572;28;20521;-79
2024/02/09 05:16:38;;;;;;;5.00;4.90;;;10.90;1.00;;;;;;4997944;28;20478;-78
2024/02/09 05:19:09;;;;;;;5.03;4.83;;;10.90;25.70;;;;;;4996795;28;20453;-77
2024/02/09 05:21:39;;;;;;;5.90;5.60;;;10.90;1.00;;;;;;4994351;28;20446;-81
2024/02/09 05:24:08;;;;;;;5.40;5.20;;;10.80;1.00;;;;;;4998109;28;20442;-78
2024/02/09 05:26:36;;;;;;;5.30;5.10;;;10.90;1.00;;;;;;4985492;28;20485;-79
2024/02/09 05:29:05;;;;;;;5.30;5.10;;;10.90;99.90;;;;;;5001425;28;20948;-78
2024/02/09 05:31:33;;;;;;;5.67;5.27;;;10.90;1.00;;;;;;4999382;28;20498;-78
2024/02/09 05:34:07;;;;;;;4.40;4.30;;;10.90;1.00;;;;;;5000381;28;20806;-78
2024/02/09 05:36:36;;;;;;;4.80;4.50;;;10.80;1.00;;;;;;4999641;28;20466;-79
2024/02/09 05:39:07;;;;;;;4.50;4.30;;;10.90;24.90;;;;;;4998072;28;20588;-79
2024/02/09 05:41:36;;;;;;;5.10;4.67;;;10.90;1.00;;;;;;4995744;28;20985;-79
2024/02/09 05:44:06;;;;;;;4.70;4.40;;;10.90;99.90;;;;;;4997422;28;20466;-78
2024/02/09 05:46:34;;;;;;;5.20;5.10;;;10.90;1.00;;;;;;4997691;28;20509;-79
2024/02/09 05:49:06;;;;;;;5.37;5.20;;;10.90;1.00;;;;;;4998894;28;20485;-80
2024/02/09 05:51:35;;;;;;;4.93;4.80;;;10.80;1.00;;;;;;4996692;28;20449;-78
2024/02/09 05:54:03;;;;;;;4.87;4.77;;;10.90;99.90;;;;;;4998196;28;21036;-79
2024/02/09 05:56:31;;;;;;;4.80;4.70;;;10.90;88.90;;;;;;4996096;28;21046;-78
2024/02/09 05:59:04;;;;;;;4.90;4.80;;;10.80;99.90;;;;;;4991964;28;20463;-78
2024/02/09 06:01:34;;;;;;;4.83;4.73;;;10.80;1.00;;;;;;4998812;28;20662;-79
2024/02/09 06:04:02;;;;;;;5.10;4.80;;;10.90;1.00;;;;;;4980734;28;20458;-78
2024/02/09 06:06:31;;;;;;;4.83;4.73;;;10.90;1.00;;;;;;4996402;28;21281;-79
2024/02/09 06:09:01;;;;;;;4.73;4.53;;;10.90;1.00;;;;;;4995869;28;20466;-83
2024/02/09 06:11:29;;;;;;;6.00;5.53;;;10.80;1.00;;;;;;4996519;28;20829;-79
2024/02/09 06:14:00;;;;;;;5.50;5.30;;;10.80;99.90;;;;;;4995516;28;20451;-79
2024/02/09 06:16:31;;;;;;;5.07;4.97;;;10.80;1.00;;;;;;4993882;28;20472;-79
2024/02/09 06:18:59;;;;;;;5.07;4.97;;;10.80;99.90;;;;;;4997047;28;20438;-79
2024/02/09 06:21:27;;;;;;;4.77;4.67;;;10.80;99.90;;;;;;4998973;28;20876;-78
2024/02/09 06:23:56;;;;;;;4.87;4.77;;;10.80;99.90;;;;;;5002615;28;20492;-79
2024/02/09 06:26:24;;;;;;;4.60;4.50;;;10.80;61.20;;;;;;4996154;28;20517;-79
2024/02/09 06:28:53;;;;;;;4.40;4.30;;;10.90;99.90;;;;;;4997000;28;20454;-80
2024/02/09 06:31:23;;;;;;;4.63;4.53;;;10.80;99.90;;;;;;4998875;28;20476;-79
2024/02/09 06:33:55;;;;;;;4.90;4.80;;;10.80;42.30;;;;;;5000189;28;20476;-78
2024/02/09 06:36:26;;;;;;;4.87;4.60;;;10.80;38.70;;;;;;5002174;28;20528;-78
2024/02/09 06:38:54;;;;;;;4.53;4.43;;;10.80;1.00;;;;;;5000562;28;21034;-80
2024/02/09 06:41:23;;;;;;;4.60;4.50;;;10.80;38.80;;;;;;5003116;28;20586;-79
2024/02/09 06:43:51;;;;;;;4.63;4.53;;;10.80;1.00;;;;;;4999646;28;20493;-79
2024/02/09 06:46:20;;;;;;;4.80;4.30;;;10.80;99.90;;;;;;5000316;28;20556;-81
2024/02/09 06:48:48;;;;;;;4.43;4.33;;;10.80;99.90;;;;;;4998362;28;20465;-81
2024/02/09 06:51:20;;;;;;;4.80;4.60;;;10.80;1.00;;;;;;4998360;28;20454;-78
2024/02/09 06:53:51;;;;;;;4.60;4.50;;;10.80;1.00;;;;;;4997809;28;20449;-79
2024/02/09 06:56:20;;;;;;;4.30;4.20;;;10.80;1.00;;;;;;5000116;28;20458;-80
2024/02/09 06:58:50;;;;;;;4.30;4.20;;;10.80;1.00;;;;;;4998362;28;21078;-80
2024/02/09 07:01:19;;;;;;;4.20;4.10;;;10.70;99.90;;;;;;4996522;28;20453;-79
2024/02/09 07:03:49;;;;;;;5.90;4.60;;;10.80;1.00;;;;;;5000622;28;20512;-78
2024/02/09 07:06:19;;;;;;;4.70;4.50;;;10.80;99.90;;;;;;4998492;28;20478;-78
2024/02/09 07:08:52;;;;;;;5.40;4.90;;;10.70;99.90;;;;;;4998358;28;20479;-78
2024/02/09 07:11:21;;;;;;;4.83;4.73;;;10.80;99.90;;;;;;4995985;28;20458;-78
2024/02/09 07:13:49;;;;;;;4.40;4.30;;;10.80;1.00;;;;;;4999600;28;21038;-79
2024/02/09 07:16:19;;;;;;;5.00;4.60;;;10.80;1.00;;;;;;4999273;28;20477;-78
2024/02/09 07:18:47;;;;;;;4.37;4.27;;;10.70;1.00;;;;;;4998418;28;20459;-77
2024/02/09 07:21:15;;;;;;;4.90;4.80;;;10.80;99.90;;;;;;4999774;28;20461;-80
2024/02/09 07:23:49;;;;;;;5.23;4.90;;;10.80;99.90;;;;;;4999633;28;20540;-79
2024/02/09 07:26:23;;;;;;;4.50;4.40;;;10.80;1.00;;;;;;4997766;28;20486;-78
2024/02/09 07:28:52;;;;;;;4.80;4.60;;;10.80;1.00;;;;;;4998662;28;20542;-80
2024/02/09 07:31:21;;;;;;;4.83;4.63;;;10.90;1.00;;;;;;4998118;28;21265;-79
2024/02/09 07:33:50;;;;;;;4.43;4.23;;;10.80;99.90;;;;;;4997292;28;20528;-82
2024/02/09 07:36:20;;;;;;;5.40;5.20;;;10.70;1.00;;;;;;4998610;28;20469;-78
2024/02/09 07:38:48;;;;;;;4.70;4.60;;;10.80;99.90;;;;;;5000127;28;20465;-78
2024/02/09 07:41:18;;;;;;;5.20;5.00;;;10.80;99.90;;;;;;4998098;28;20462;-78
2024/02/09 07:43:48;;;;;;;5.00;4.80;;;10.80;99.90;;;;;;5014689;28;20551;-78
2024/02/09 07:46:16;;;;;;;4.80;4.70;;;10.80;1.00;;;;;;4999396;28;20478;-79
2024/02/09 07:48:45;;;;;;;4.83;4.73;;;10.90;99.90;;;;;;4981059;28;20473;-79
2024/02/09 07:51:20;;;;;;;5.03;4.83;;;10.90;1.00;;;;;;4979088;28;20524;-78
2024/02/09 07:53:52;;;;;;;4.90;4.70;;;10.90;99.90;;;;;;4998029;28;20540;-81
2024/02/09 07:56:23;;;;;;;5.43;5.23;;;10.90;9.60;;;;;;4995134;28;20577;-79
2024/02/09 07:58:53;;;;;;;5.00;4.90;;;10.90;99.90;;;;;;4998035;28;21015;-79
2024/02/09 08:01:22;;;;;;;5.57;5.23;;;10.90;99.90;;;;;;4996150;28;20446;-78
2024/02/09 08:03:52;;;;;;;5.60;5.40;;;11.00;44.50;;;;;;4999468;28;20446;-79
2024/02/09 08:06:21;;;;;;;5.00;4.80;;;11.10;99.90;;;;;;4997620;28;20543;-79
2024/02/09 08:08:53;;;;;;;4.97;4.87;;;11.10;99.90;;;;;;4995613;28;21029;-80
2024/02/09 08:11:22;;;;;;;4.90;4.70;;;11.10;20.70;;;;;;4996388;28;21030;-78
2024/02/09 08:13:52;;;;;;;5.37;5.17;;;11.10;1.00;;;;;;4998366;28;21339;-80
2024/02/09 08:16:21;;;;;;;5.73;5.43;;;11.10;99.90;;;;;;4999407;28;20473;-78
2024/02/09 08:18:50;;;;;;;5.83;5.50;;;11.10;99.90;;;;;;4995975;28;20445;-79
2024/02/09 08:21:18;;;;;;;5.03;4.93;;;11.10;98.80;;;;;;4997703;28;20478;-78
2024/02/09 08:23:47;;;;;;;5.10;4.93;;;11.20;1.00;;;;;;4997733;28;20465;-81
2024/02/09 08:26:16;;;;;;;5.33;4.90;;;11.20;99.90;;;;;;4997329;28;21266;-80
2024/02/09 08:28:47;;;;;;;5.10;4.90;;;11.30;99.90;;;;;;4992816;28;20453;-82
2024/02/09 08:31:18;;;;;;;5.07;4.87;;;11.30;1.00;;;;;;4997502;28;20450;-79
2024/02/09 08:33:49;;;;;;;5.17;5.00;;;11.40;99.90;;;;;;4997930;28;20445;-78
2024/02/09 08:36:21;;;;;;;5.87;5.33;;;11.50;1.00;;;;;;4999699;28;20480;-80
2024/02/09 08:38:50;;;;;;;4.83;4.67;;;11.50;99.90;;;;;;4998375;28;21384;-80
2024/02/09 08:41:19;;;;;;;5.07;4.90;;;11.50;99.90;;;;;;4997570;28;20443;-79
2024/02/09 08:43:48;;;;;;;4.90;4.63;;;11.60;99.90;;;;;;4995892;28;20486;-80
2024/02/09 08:46:18;;;;;;;5.17;4.97;;;11.70;99.90;;;;;;4998262;28;21110;-80
2024/02/09 08:48:46;;;;;;;5.27;4.83;;;11.70;1.00;;;;;;4999557;28;20453;-80
2024/02/09 08:51:15;;;;;;;5.10;4.70;;;11.80;1.00;;;;;;4996207;28;20451;-80
2024/02/09 08:53:44;;;;;;;4.67;4.57;;;11.90;99.90;;;;;;4996361;28;20454;-79
2024/02/09 08:56:15;;;;;;;4.40;4.30;;;12.00;1.00;;;;;;5000279;28;20470;-79
2024/02/09 08:58:46;;;;;;;4.70;4.50;;;12.10;99.90;;;;;;4999648;28;20459;-81
2024/02/09 09:01:14;;;;;;;4.53;4.33;;;12.20;99.90;;;;;;4998301;28;20451;-79
2024/02/09 09:03:44;;;;;;;4.93;4.73;;;12.30;1.00;;;;;;4999045;28;20589;-80
2024/02/09 09:06:15;;;;;;;5.20;4.70;;;12.40;29.80;;;;;;4998081;28;20502;-80
2024/02/09 09:08:43;;;;;;;4.87;4.67;;;12.40;1.00;;;;;;4998198;28;20580;-78
2024/02/09 09:11:13;;;;;;;4.37;4.20;;;12.50;1.00;;;;;;4980282;28;20504;-78
2024/02/09 09:13:41;;;;;;;4.50;4.30;;;12.50;1.00;;;;;;4998457;28;20461;-79
2024/02/09 09:16:10;;;;;;;4.47;4.20;;;12.30;1.00;;;;;;4995097;28;21160;-79
2024/02/09 09:18:39;;;;;;;5.53;5.23;;;12.20;1.00;;;;;;4997028;28;20450;-80
2024/02/09 09:21:10;;;;;;;4.80;4.60;;;12.20;1.00;;;;;;4998627;28;20540;-80
2024/02/09 09:23:39;;;;;;;4.50;4.30;;;12.30;1.00;;;;;;4997491;28;20451;-79
2024/02/09 09:26:08;;;;;;;5.30;5.00;;;12.30;1.00;;;;;;4994189;28;20560;-80
2024/02/09 09:28:52;;;;;;;4.10;4.00;;;12.30;1.00;;;;;;4996083;28;20470;-79
2024/02/09 09:31:21;;;;;;;5.00;4.20;;;12.30;1.00;;;;;;4994528;28;20549;-79
2024/02/09 09:33:49;;;;;;;4.33;4.03;;;12.30;99.90;;;;;;4996735;28;20979;-79
2024/02/09 09:36:19;;;;;;;3.97;3.87;;;12.40;1.00;;;;;;4995115;28;20470;-80
2024/02/09 09:38:47;;;;;;;3.87;3.77;;;12.40;1.00;;;;;;4997315;28;21137;-79
2024/02/09 09:41:19;;;;;;;4.63;4.53;;;12.40;1.00;;;;;;4998811;28;20496;-79
2024/02/09 09:43:49;;;;;;;4.07;3.87;;;12.40;1.00;;;;;;4996026;28;20462;-79
2024/02/09 09:46:21;;;;;;;4.70;4.40;;;12.40;1.00;;;;;;4999034;28;20506;-81
2024/02/09 09:48:52;;;;;;;5.57;5.13;;;12.40;1.00;;;;;;4996646;28;20467;-80
2024/02/09 09:51:33;;;;;;;4.50;4.40;;;12.40;1.00;;;;;;4994230;28;20457;-79
2024/02/09 09:54:01;;;;;;;4.50;4.40;;;12.60;1.00;;;;;;4996674;28;20465;-79
2024/02/09 09:56:32;;;;;;;4.30;4.20;;;12.70;1.00;;;;;;4998600;28;20471;-79
2024/02/09 09:59:00;;;;;;;4.27;4.00;;;12.80;99.90;;;;;;5000432;28;20425;-78
2024/02/09 10:01:29;;;;;;;3.80;3.70;;;12.80;99.90;;;;;;5002823;28;20550;-80
2024/02/09 10:03:58;;;;;;;4.10;3.97;;;12.80;99.90;;;;;;5002732;28;20445;-79
2024/02/09 10:06:29;;;;;;;4.43;4.20;;;12.70;99.90;;;;;;5000575;28;20540;-79
2024/02/09 10:08:58;;;;;;;4.10;4.00;;;12.70;99.90;;;;;;4999473;28;20462;-79
2024/02/09 10:11:27;;;;;;;3.97;3.60;;;12.60;99.90;;;;;;5000835;28;20459;-81
2024/02/09 10:13:55;;;;;;;3.80;3.60;;;12.60;99.90;;;;;;5000641;28;20565;-79
2024/02/09 10:16:24;;;;;;;3.70;3.50;;;12.50;99.90;;;;;;5000425;28;20465;-78
2024/02/09 10:18:53;;;;;;;4.20;3.80;;;12.50;99.90;;;;;;4999491;28;20982;-80
2024/02/09 10:21:22;;;;;;;4.90;4.60;;;12.40;99.90;;;;;;5000924;28;20568;-78
2024/02/09 10:23:52;;;;;;;5.23;3.90;;;12.40;99.90;;;;;;4999750;28;20496;-80
2024/02/09 10:26:21;;;;;;;3.97;3.67;;;12.50;99.90;;;;;;4983441;28;20584;-80
2024/02/09 10:28:51;;;;;;;3.93;3.73;;;12.50;99.90;;;;;;4986839;28;20493;-78
2024/02/09 10:31:22;;;;;;;3.97;3.67;;;12.50;99.90;;;;;;4995562;28;20515;-78
2024/02/09 10:33:51;;;;;;;3.90;3.70;;;12.50;99.90;;;;;;4999663;28;20538;-79
2024/02/09 10:36:20;;;;;;;3.50;3.30;;;12.60;99.90;;;;;;5000131;28;20458;-79
2024/02/09 10:38:49;;;;;;;5.43;4.43;;;12.60;99.90;;;;;;4996261;28;20473;-79
2024/02/09 10:41:20;;;;;;;3.77;3.47;;;12.60;99.90;;;;;;4996682;28;20447;-80
2024/02/09 10:43:51;;;;;;;3.80;3.70;;;12.60;99.90;;;;;;4998040;28;20533;-78
2024/02/09 10:46:23;;;;;;;3.90;3.70;;;12.70;99.90;;;;;;4996641;28;20489;-79
2024/02/09 10:48:57;;;;;;;4.20;4.00;;;12.80;99.90;;;;;;4998089;28;20466;-77
2024/02/09 10:51:29;;;;;;;3.47;3.27;;;12.80;99.90;;;;;;4997610;28;20461;-78
2024/02/09 10:54:07;;;;;;;4.10;3.83;;;12.80;99.90;;;;;;4997334;28;20968;-78
2024/02/09 10:56:39;;;;;;;3.90;3.80;;;12.90;99.90;;;;;;4997825;28;20632;-78
2024/02/09 10:59:08;;;;;;;3.47;3.17;;;12.90;99.90;;;;;;4996566;28;20540;-77
2024/02/09 11:01:37;;;;;;;3.80;3.70;;;12.80;99.90;;;;;;4997390;28;20458;-78
2024/02/09 11:04:06;;;;;;;4.77;4.47;;;12.70;55.70;;;;;;4998947;28;20461;-78
2024/02/09 11:06:35;;;;;;;6.30;3.87;;;12.70;99.90;;;;;;4998518;28;21018;-79
2024/02/09 11:09:04;;;;;;;4.13;3.60;;;12.70;78.90;;;;;;4998138;28;20897;-80
2024/02/09 11:11:33;;;;;;;3.70;3.50;;;12.70;99.90;;;;;;5000436;28;20523;-81
2024/02/09 11:14:11;;;;;;;3.10;3.00;;;12.70;65.20;;;;;;5000856;28;20452;-79
2024/02/09 11:16:44;;;;;;;3.57;3.30;;;12.80;99.90;;;;;;5000533;28;20569;-80
2024/02/09 11:19:15;;;;;;;3.73;3.60;;;12.80;55.70;;;;;;4999571;28;20874;-79
2024/02/09 11:21:47;;;;;;;3.80;3.60;;;12.80;78.70;;;;;;4998817;28;20458;-79
2024/02/09 11:24:16;;;;;;;3.67;3.57;;;12.80;32.70;;;;;;4999524;28;21183;-81
2024/02/09 11:26:49;;;;;;;3.33;3.23;;;12.80;1.00;;;;;;4997926;28;20478;-79
2024/02/09 11:29:19;;;;;;;4.10;3.47;;;12.80;44.20;;;;;;4997350;28;20487;-80
2024/02/09 11:31:52;;;;;;;4.37;4.07;;;12.80;17.60;;;;;;5000077;28;20455;-80
2024/02/09 11:34:22;;;;;;;3.47;3.30;;;12.90;2.90;;;;;;4998507;28;20516;-79
2024/02/09 11:36:50;;;;;;;3.77;3.57;;;12.90;8.40;;;;;;5000256;28;20465;-79
2024/02/09 11:39:22;;;;;;;3.13;3.03;;;12.90;1.00;;;;;;4996505;28;20521;-80
2024/02/09 11:41:50;;;;;;;3.30;3.10;;;12.90;1.00;;;;;;4997191;28;20481;-79
2024/02/09 11:44:20;;;;;;;3.80;3.60;;;12.80;1.00;;;;;;4996135;28;20537;-82
2024/02/09 11:46:48;;;;;;;4.13;3.87;;;12.80;1.00;;;;;;4993535;28;20486;-80
2024/02/09 11:49:17;;;;;;;3.60;3.40;;;12.80;2.00;;;;;;4997153;28;20503;-80
2024/02/09 11:51:46;;;;;;;3.83;3.57;;;12.80;25.60;;;;;;5010584;28;20964;-80
2024/02/09 11:54:18;;;;;;;4.33;4.10;;;12.80;1.00;;;;;;4995641;28;20505;-81
2024/02/09 11:56:48;;;;;;;3.70;3.50;;;12.80;1.00;;;;;;4993782;28;20489;-82
2024/02/09 11:59:16;;;;;;;3.40;3.20;;;12.80;1.00;;;;;;4994502;28;20469;-81
2024/02/09 12:01:45;;;;;;;6.73;4.00;;;12.80;1.00;;;;;;4995231;28;20454;-82
2024/02/09 12:04:14;;;;;;;8.30;4.13;;;12.80;1.00;;;;;;4989012;28;20465;-80
2024/02/09 12:06:42;;;;;;;3.80;3.53;;;12.80;1.00;;;;;;4996961;28;20470;-80
2024/02/09 12:09:12;;;;;;;3.90;3.70;;;12.90;1.00;;;;;;4991822;28;20551;-80
2024/02/09 12:11:42;;;;;;;3.33;3.13;;;12.80;1.00;;;;;;4995879;28;20465;-80
2024/02/09 12:14:10;;;;;;;4.27;3.93;;;12.80;1.00;;;;;;4993477;28;20451;-80
2024/02/09 12:16:38;;;;;;;3.43;3.23;;;12.80;1.00;;;;;;4999525;28;21348;-80
2024/02/09 12:19:08;;;;;;;2.77;2.67;;;12.80;1.00;;;;;;4996582;28;20450;-83
2024/02/09 12:21:36;;;;;;;3.50;3.20;;;12.80;55.30;;;;;;4998542;28;20446;-79
2024/02/09 12:24:06;;;;;;;3.10;2.90;;;12.80;43.60;;;;;;4997721;28;21011;-82
2024/02/09 12:26:37;;;;;;;3.00;2.80;;;12.80;70.10;;;;;;4991687;28;20485;-82
2024/02/09 12:29:11;;;;;;;2.83;2.73;;;12.80;99.90;;;;;;4995908;28;20585;-81
2024/02/09 12:31:43;;;;;;;3.07;2.77;;;12.80;99.90;;;;;;4995073;28;20468;-82
2024/02/09 12:34:14;;;;;;;3.10;2.90;;;12.70;99.90;;;;;;4998139;28;20959;-81
2024/02/09 12:36:55;;;;;;;3.83;3.60;;;12.80;99.90;;;;;;4998094;28;20566;-80
2024/02/09 12:39:24;;;;;;;4.17;3.87;;;12.80;99.90;;;;;;4993883;28;20442;-81
2024/02/09 12:41:59;;;;;;;3.10;3.00;;;12.80;99.90;;;;;;4997945;28;20489;-82
2024/02/09 12:44:30;;;;;;;3.37;3.17;;;12.70;99.90;;;;;;4997943;28;20555;-82
2024/02/09 12:47:02;;;;;;;3.70;3.50;;;12.80;99.90;;;;;;4997426;28;20564;-81
2024/02/09 12:49:34;;;;;;;3.50;3.30;;;12.70;99.90;;;;;;4997607;28;20613;-81
2024/02/09 12:52:06;;;;;;;3.20;3.10;;;12.70;99.90;;;;;;4999999;28;20450;-82
2024/02/09 12:54:35;;;;;;;3.63;3.33;;;12.70;99.90;;;;;;5001748;28;20442;-81
2024/02/09 12:57:05;;;;;;;3.10;3.00;;;12.70;99.90;;;;;;5000594;28;20478;-80
2024/02/09 12:59:34;;;;;;;3.77;3.47;;;12.70;99.90;;;;;;4995248;28;20489;-79
2024/02/09 13:02:04;;;;;;;4.00;3.70;;;12.70;99.90;;;;;;4998371;28;20463;-79
2024/02/09 13:04:35;;;;;;;3.90;3.70;;;12.70;99.90;;;;;;4998079;28;20529;-78
2024/02/09 13:07:06;;;;;;;4.00;3.80;;;12.70;99.90;;;;;;4996212;28;20480;-79
2024/02/09 13:09:35;;;;;;;4.10;3.80;;;12.80;99.90;;;;;;4999212;28;20474;-82
2024/02/09 13:12:06;;;;;;;3.40;3.30;;;12.80;99.90;;;;;;4998177;28;20545;-80
2024/02/09 13:14:37;;;;;;;3.90;3.70;;;12.80;99.90;;;;;;4990627;28;20456;-82
2024/02/09 13:17:06;;;;;;;3.67;3.47;;;12.80;99.90;;;;;;4996708;28;20525;-79
2024/02/09 13:19:36;;;;;;;3.60;3.50;;;12.80;99.90;;;;;;4994937;28;20921;-80
2024/02/09 13:22:08;;;;;;;3.40;3.20;;;12.80;99.90;;;;;;4995155;28;20481;-81
2024/02/09 13:24:39;;;;;;;3.23;3.03;;;12.80;99.90;;;;;;4994722;28;20455;-79
2024/02/09 13:27:12;;;;;;;3.60;3.40;;;12.80;99.90;;;;;;4995107;28;20561;-79
2024/02/09 13:29:42;;;;;;;4.30;4.00;;;12.80;99.90;;;;;;4996932;28;20480;-77
2024/02/09 13:32:13;;;;;;;3.90;3.70;;;12.80;99.90;;;;;;4998014;28;20461;-80
2024/02/09 13:34:43;;;;;;;4.10;4.00;;;12.80;99.90;;;;;;4998500;28;20473;-79
2024/02/09 13:37:13;;;;;;;3.97;3.57;;;12.80;99.90;;;;;;5000622;28;20540;-79
2024/02/09 13:39:41;;;;;;;4.27;3.97;;;12.80;99.90;;;;;;4999909;28;20446;-80
2024/02/09 13:42:10;;;;;;;4.00;3.80;;;12.80;99.90;;;;;;5001395;28;20459;-80
2024/02/09 13:44:38;;;;;;;4.30;4.10;;;12.80;99.90;;;;;;5000366;28;20539;-79
2024/02/09 13:47:07;;;;;;;4.20;4.00;;;12.80;99.90;;;;;;5000885;28;20543;-80
2024/02/09 13:49:35;;;;;;;4.53;4.33;;;12.80;99.90;;;;;;5001103;28;20991;-79
2024/02/09 13:52:05;;;;;;;4.10;3.80;;;12.80;99.90;;;;;;5000957;28;21087;-82
2024/02/09 13:54:34;;;;;;;3.53;3.33;;;12.80;99.90;;;;;;4999187;28;20465;-79
2024/02/09 13:57:02;;;;;;;3.40;3.30;;;12.80;99.90;;;;;;4998289;28;20474;-80
2024/02/09 13:59:30;;;;;;;3.33;3.20;;;12.80;99.90;;;;;;4998718;28;20570;-79
2024/02/09 14:01:58;;;;;;;3.60;3.40;;;12.80;99.90;;;;;;4999331;28;20450;-80
2024/02/09 14:04:26;;;;;;;5.43;3.37;;;12.80;99.90;;;;;;4997326;28;20472;-80
2024/02/09 14:06:57;;;;;;;3.40;3.20;;;12.90;99.90;;;;;;4997310;28;20482;-80
2024/02/09 14:09:29;;;;;;;3.77;3.60;;;12.80;99.90;;;;;;5001464;28;20459;-79
2024/02/09 14:11:58;;;;;;;5.13;4.90;;;12.90;99.90;;;;;;4994527;28;20463;-79
2024/02/09 14:14:27;;;;;;;3.80;3.50;;;12.90;99.90;;;;;;4998598;28;20464;-80
2024/02/09 14:16:55;;;;;;;4.50;4.30;;;12.90;99.90;;;;;;4995231;28;20492;-80
2024/02/09 14:19:23;;;;;;;3.70;3.60;;;12.90;99.90;;;;;;5000397;28;20445;-79
2024/02/09 14:22:04;;;;;;;3.27;3.17;;;12.90;99.90;;;;;;4997808;28;20496;-79
2024/02/09 14:24:36;;;;;;;4.83;3.73;;;12.90;99.90;;;;;;5000919;28;20453;-79
2024/02/09 14:27:04;;;;;;;3.40;3.20;;;12.90;99.90;;;;;;4999530;28;20489;-77
2024/02/09 14:29:33;;;;;;;4.40;4.20;;;12.90;99.90;;;;;;4996584;28;20527;-80
2024/02/09 14:32:02;;;;;;;4.47;4.33;;;12.90;51.90;;;;;;4997637;28;20469;-79
2024/02/09 14:34:30;;;;;;;4.07;3.80;;;12.90;92.20;;;;;;4997647;28;20452;-78
2024/02/09 14:36:58;;;;;;;4.37;3.90;;;12.90;69.10;;;;;;4998238;28;20582;-79
2024/02/09 14:39:26;;;;;;;3.60;3.40;;;13.00;83.60;;;;;;4998470;28;20963;-80
2024/02/09 14:41:56;;;;;;;3.63;3.53;;;12.90;65.30;;;;;;4999707;28;20979;-79
2024/02/09 14:44:24;;;;;;;3.67;3.47;;;13.00;88.80;;;;;;4998750;28;20451;-80
2024/02/09 14:46:52;;;;;;;3.13;3.03;;;12.90;97.40;;;;;;4997182;28;20478;-78
2024/02/09 14:49:21;;;;;;;3.27;3.07;;;12.90;39.70;;;;;;4994133;28;20454;-79
2024/02/09 14:51:49;;;;;;;5.00;4.07;;;12.80;24.00;;;;;;5000156;28;21187;-80